sensor_id;sensor_type;location;lat;lon;timestamp;P1;durP1;ratioP1;P2;durP2;ratioP2
53207;SDS011;39093;52.788;6.940;2023-07-22T00:01:29;15.75;;;5.90;;
53207;SDS011;39093;52.788;6.940;2023-07-22T00:03:57;11.27;;;5.85;;
53207;SDS011;39093;52.788;6.940;2023-07-22T00:06:25;13.93;;;6.05;;
53207;SDS011;39093;52.788;6.940;2023-07-22T00:08:53;15.18;;;6.05;;
53207;SDS011;39093;52.788;6.940;2023-07-22T00:11:20;15.77;;;6.43;;
53207;SDS011;39093;52.788;6.940;2023-07-22T00:13:47;11.90;;;6.32;;
53207;SDS011;39093;52.788;6.940;2023-07-22T00:16:14;14.68;;;6.55;;
53207;SDS011;39093;52.788;6.940;2023-07-22T00:18:41;12.93;;;6.32;;
53207;SDS011;39093;52.788;6.940;2023-07-22T00:21:08;8.73;;;5.90;;
53207;SDS011;39093;52.788;6.940;2023-07-22T00:23:35;11.27;;;6.03;;
53207;SDS011;39093;52.788;6.940;2023-07-22T00:26:02;12.25;;;6.00;;
53207;SDS011;39093;52.788;6.940;2023-07-22T00:28:29;15.27;;;5.75;;
53207;SDS011;39093;52.788;6.940;2023-07-22T00:30:56;12.40;;;5.55;;
53207;SDS011;39093;52.788;6.940;2023-07-22T00:33:23;11.15;;;7.00;;
53207;SDS011;39093;52.788;6.940;2023-07-22T00:35:50;10.68;;;6.00;;
53207;SDS011;39093;52.788;6.940;2023-07-22T00:38:18;13.15;;;6.30;;
53207;SDS011;39093;52.788;6.940;2023-07-22T00:40:46;16.80;;;6.60;;
53207;SDS011;39093;52.788;6.940;2023-07-22T00:43:13;12.65;;;6.47;;
53207;SDS011;39093;52.788;6.940;2023-07-22T00:45:40;19.67;;;6.80;;
53207;SDS011;39093;52.788;6.940;2023-07-22T00:48:07;13.80;;;6.13;;
53207;SDS011;39093;52.788;6.940;2023-07-22T00:50:36;10.73;;;6.72;;
53207;SDS011;39093;52.788;6.940;2023-07-22T00:53:04;12.73;;;6.47;;
53207;SDS011;39093;52.788;6.940;2023-07-22T00:55:31;11.02;;;6.70;;
53207;SDS011;39093;52.788;6.940;2023-07-22T00:58:01;12.85;;;6.22;;
53207;SDS011;39093;52.788;6.940;2023-07-22T01:00:28;11.57;;;7.00;;
53207;SDS011;39093;52.788;6.940;2023-07-22T01:02:55;14.57;;;6.90;;
53207;SDS011;39093;52.788;6.940;2023-07-22T01:05:22;14.60;;;7.63;;
53207;SDS011;39093;52.788;6.940;2023-07-22T01:07:49;10.98;;;7.50;;
53207;SDS011;39093;52.788;6.940;2023-07-22T01:10:17;12.98;;;7.45;;
53207;SDS011;39093;52.788;6.940;2023-07-22T01:12:44;13.75;;;7.25;;
53207;SDS011;39093;52.788;6.940;2023-07-22T01:15:11;12.70;;;7.28;;
53207;SDS011;39093;52.788;6.940;2023-07-22T01:17:38;12.45;;;7.43;;
53207;SDS011;39093;52.788;6.940;2023-07-22T01:20:06;11.02;;;6.30;;
53207;SDS011;39093;52.788;6.940;2023-07-22T01:22:34;14.05;;;7.60;;
53207;SDS011;39093;52.788;6.940;2023-07-22T01:25:03;14.65;;;7.13;;
53207;SDS011;39093;52.788;6.940;2023-07-22T01:27:30;17.83;;;7.03;;
53207;SDS011;39093;52.788;6.940;2023-07-22T01:29:57;12.60;;;7.38;;
53207;SDS011;39093;52.788;6.940;2023-07-22T01:32:24;14.75;;;7.57;;
53207;SDS011;39093;52.788;6.940;2023-07-22T01:34:51;13.70;;;8.13;;
53207;SDS011;39093;52.788;6.940;2023-07-22T01:37:17;15.15;;;8.13;;
53207;SDS011;39093;52.788;6.940;2023-07-22T01:39:45;14.93;;;8.15;;
53207;SDS011;39093;52.788;6.940;2023-07-22T01:42:17;17.00;;;8.48;;
53207;SDS011;39093;52.788;6.940;2023-07-22T01:44:44;8.93;;;6.57;;
53207;SDS011;39093;52.788;6.940;2023-07-22T01:47:11;18.30;;;9.00;;
53207;SDS011;39093;52.788;6.940;2023-07-22T01:49:38;17.13;;;7.50;;
53207;SDS011;39093;52.788;6.940;2023-07-22T01:52:05;12.10;;;7.68;;
53207;SDS011;39093;52.788;6.940;2023-07-22T01:54:32;14.60;;;7.97;;
53207;SDS011;39093;52.788;6.940;2023-07-22T01:56:59;15.32;;;7.57;;
53207;SDS011;39093;52.788;6.940;2023-07-22T01:59:26;13.40;;;7.35;;
53207;SDS011;39093;52.788;6.940;2023-07-22T02:01:53;15.50;;;7.78;;
53207;SDS011;39093;52.788;6.940;2023-07-22T02:04:20;13.05;;;7.75;;
53207;SDS011;39093;52.788;6.940;2023-07-22T02:06:47;12.82;;;7.10;;
53207;SDS011;39093;52.788;6.940;2023-07-22T02:09:14;16.15;;;7.97;;
53207;SDS011;39093;52.788;6.940;2023-07-22T02:11:41;12.57;;;7.78;;
53207;SDS011;39093;52.788;6.940;2023-07-22T02:14:08;18.15;;;8.43;;
53207;SDS011;39093;52.788;6.940;2023-07-22T02:16:35;16.25;;;8.20;;
53207;SDS011;39093;52.788;6.940;2023-07-22T02:19:05;15.50;;;7.65;;
53207;SDS011;39093;52.788;6.940;2023-07-22T02:21:32;13.90;;;8.15;;
53207;SDS011;39093;52.788;6.940;2023-07-22T02:23:59;13.90;;;7.82;;
53207;SDS011;39093;52.788;6.940;2023-07-22T02:26:26;15.38;;;8.48;;
53207;SDS011;39093;52.788;6.940;2023-07-22T02:28:53;12.25;;;7.65;;
53207;SDS011;39093;52.788;6.940;2023-07-22T02:31:21;14.10;;;8.15;;
53207;SDS011;39093;52.788;6.940;2023-07-22T02:33:49;14.23;;;8.15;;
53207;SDS011;39093;52.788;6.940;2023-07-22T02:36:16;13.23;;;8.07;;
53207;SDS011;39093;52.788;6.940;2023-07-22T02:38:43;18.40;;;8.32;;
53207;SDS011;39093;52.788;6.940;2023-07-22T02:41:10;16.77;;;8.27;;
53207;SDS011;39093;52.788;6.940;2023-07-22T02:43:37;14.93;;;8.95;;
53207;SDS011;39093;52.788;6.940;2023-07-22T02:46:04;17.23;;;9.27;;
53207;SDS011;39093;52.788;6.940;2023-07-22T02:48:34;15.68;;;8.95;;
53207;SDS011;39093;52.788;6.940;2023-07-22T02:51:02;20.67;;;9.02;;
53207;SDS011;39093;52.788;6.940;2023-07-22T02:53:33;18.55;;;9.38;;
53207;SDS011;39093;52.788;6.940;2023-07-22T02:56:03;15.63;;;8.73;;
53207;SDS011;39093;52.788;6.940;2023-07-22T02:58:31;15.23;;;8.85;;
53207;SDS011;39093;52.788;6.940;2023-07-22T03:00:58;15.82;;;8.68;;
53207;SDS011;39093;52.788;6.940;2023-07-22T03:03:25;15.07;;;10.05;;
53207;SDS011;39093;52.788;6.940;2023-07-22T03:05:53;13.98;;;8.90;;
53207;SDS011;39093;52.788;6.940;2023-07-22T03:08:19;17.48;;;10.23;;
53207;SDS011;39093;52.788;6.940;2023-07-22T03:10:46;15.55;;;8.88;;
53207;SDS011;39093;52.788;6.940;2023-07-22T03:13:15;17.30;;;10.20;;
53207;SDS011;39093;52.788;6.940;2023-07-22T03:15:42;18.70;;;10.85;;
53207;SDS011;39093;52.788;6.940;2023-07-22T03:18:10;16.27;;;9.85;;
53207;SDS011;39093;52.788;6.940;2023-07-22T03:20:37;21.10;;;9.70;;
53207;SDS011;39093;52.788;6.940;2023-07-22T03:23:05;16.60;;;9.80;;
53207;SDS011;39093;52.788;6.940;2023-07-22T03:25:33;15.52;;;10.07;;
53207;SDS011;39093;52.788;6.940;2023-07-22T03:28:02;17.33;;;9.95;;
53207;SDS011;39093;52.788;6.940;2023-07-22T03:30:31;16.67;;;9.40;;
53207;SDS011;39093;52.788;6.940;2023-07-22T03:32:58;22.35;;;10.77;;
53207;SDS011;39093;52.788;6.940;2023-07-22T03:35:27;17.85;;;9.38;;
53207;SDS011;39093;52.788;6.940;2023-07-22T03:37:54;15.95;;;9.63;;
53207;SDS011;39093;52.788;6.940;2023-07-22T03:40:21;17.80;;;10.43;;
53207;SDS011;39093;52.788;6.940;2023-07-22T03:42:54;20.48;;;10.40;;
53207;SDS011;39093;52.788;6.940;2023-07-22T03:45:22;19.13;;;9.70;;
53207;SDS011;39093;52.788;6.940;2023-07-22T03:47:53;16.90;;;9.40;;
53207;SDS011;39093;52.788;6.940;2023-07-22T03:50:23;18.75;;;10.05;;
53207;SDS011;39093;52.788;6.940;2023-07-22T03:52:50;18.35;;;10.25;;
53207;SDS011;39093;52.788;6.940;2023-07-22T03:55:17;17.90;;;9.65;;
53207;SDS011;39093;52.788;6.940;2023-07-22T03:57:46;17.40;;;9.70;;
53207;SDS011;39093;52.788;6.940;2023-07-22T04:00:13;14.32;;;9.13;;
53207;SDS011;39093;52.788;6.940;2023-07-22T04:02:40;18.20;;;9.15;;
53207;SDS011;39093;52.788;6.940;2023-07-22T04:05:07;15.93;;;10.27;;
53207;SDS011;39093;52.788;6.940;2023-07-22T04:07:34;18.70;;;10.68;;
53207;SDS011;39093;52.788;6.940;2023-07-22T04:10:02;18.45;;;9.80;;
53207;SDS011;39093;52.788;6.940;2023-07-22T04:12:29;20.45;;;9.68;;
53207;SDS011;39093;52.788;6.940;2023-07-22T04:14:59;17.65;;;10.52;;
53207;SDS011;39093;52.788;6.940;2023-07-22T04:17:26;19.70;;;9.98;;
53207;SDS011;39093;52.788;6.940;2023-07-22T04:19:53;17.38;;;8.80;;
53207;SDS011;39093;52.788;6.940;2023-07-22T04:22:20;15.13;;;9.13;;
53207;SDS011;39093;52.788;6.940;2023-07-22T04:24:48;17.33;;;9.55;;
53207;SDS011;39093;52.788;6.940;2023-07-22T04:27:16;15.05;;;9.10;;
53207;SDS011;39093;52.788;6.940;2023-07-22T04:29:43;13.93;;;8.68;;
53207;SDS011;39093;52.788;6.940;2023-07-22T04:32:10;16.83;;;9.70;;
53207;SDS011;39093;52.788;6.940;2023-07-22T04:34:37;17.88;;;8.38;;
53207;SDS011;39093;52.788;6.940;2023-07-22T04:37:04;15.65;;;9.15;;
53207;SDS011;39093;52.788;6.940;2023-07-22T04:39:32;14.70;;;9.15;;
53207;SDS011;39093;52.788;6.940;2023-07-22T04:41:59;15.60;;;8.85;;
53207;SDS011;39093;52.788;6.940;2023-07-22T04:44:26;21.25;;;9.55;;
53207;SDS011;39093;52.788;6.940;2023-07-22T04:46:53;15.07;;;8.93;;
53207;SDS011;39093;52.788;6.940;2023-07-22T04:49:21;17.33;;;8.77;;
53207;SDS011;39093;52.788;6.940;2023-07-22T04:51:48;15.25;;;9.52;;
53207;SDS011;39093;52.788;6.940;2023-07-22T04:54:16;13.02;;;9.10;;
53207;SDS011;39093;52.788;6.940;2023-07-22T04:56:44;15.75;;;9.57;;
53207;SDS011;39093;52.788;6.940;2023-07-22T04:59:11;15.95;;;9.80;;
53207;SDS011;39093;52.788;6.940;2023-07-22T05:01:40;16.95;;;8.95;;
53207;SDS011;39093;52.788;6.940;2023-07-22T05:04:08;21.23;;;9.70;;
53207;SDS011;39093;52.788;6.940;2023-07-22T05:06:35;15.48;;;10.38;;
53207;SDS011;39093;52.788;6.940;2023-07-22T05:09:02;17.90;;;11.35;;
53207;SDS011;39093;52.788;6.940;2023-07-22T05:11:30;13.68;;;8.98;;
53207;SDS011;39093;52.788;6.940;2023-07-22T05:13:57;16.67;;;9.52;;
53207;SDS011;39093;52.788;6.940;2023-07-22T05:16:24;14.57;;;8.45;;
53207;SDS011;39093;52.788;6.940;2023-07-22T05:18:52;13.57;;;8.77;;
53207;SDS011;39093;52.788;6.940;2023-07-22T05:21:18;12.38;;;9.13;;
53207;SDS011;39093;52.788;6.940;2023-07-22T05:23:45;15.15;;;9.18;;
53207;SDS011;39093;52.788;6.940;2023-07-22T05:26:12;15.70;;;7.97;;
53207;SDS011;39093;52.788;6.940;2023-07-22T05:28:39;19.40;;;9.60;;
53207;SDS011;39093;52.788;6.940;2023-07-22T05:31:06;17.30;;;8.57;;
53207;SDS011;39093;52.788;6.940;2023-07-22T05:33:33;14.63;;;8.25;;
53207;SDS011;39093;52.788;6.940;2023-07-22T05:36:00;14.30;;;9.45;;
53207;SDS011;39093;52.788;6.940;2023-07-22T05:38:27;13.68;;;9.07;;
53207;SDS011;39093;52.788;6.940;2023-07-22T05:40:54;13.88;;;8.32;;
53207;SDS011;39093;52.788;6.940;2023-07-22T05:43:21;13.65;;;8.50;;
53207;SDS011;39093;52.788;6.940;2023-07-22T05:45:48;11.77;;;8.55;;
53207;SDS011;39093;52.788;6.940;2023-07-22T05:48:16;15.07;;;8.95;;
53207;SDS011;39093;52.788;6.940;2023-07-22T05:50:46;16.30;;;8.95;;
53207;SDS011;39093;52.788;6.940;2023-07-22T05:53:14;14.80;;;9.50;;
53207;SDS011;39093;52.788;6.940;2023-07-22T05:55:41;16.52;;;9.20;;
53207;SDS011;39093;52.788;6.940;2023-07-22T05:58:14;18.75;;;9.93;;
53207;SDS011;39093;52.788;6.940;2023-07-22T06:00:42;15.07;;;8.63;;
53207;SDS011;39093;52.788;6.940;2023-07-22T06:03:09;17.83;;;9.57;;
53207;SDS011;39093;52.788;6.940;2023-07-22T06:05:36;15.52;;;10.18;;
53207;SDS011;39093;52.788;6.940;2023-07-22T06:08:03;14.05;;;9.15;;
53207;SDS011;39093;52.788;6.940;2023-07-22T06:10:31;15.68;;;9.98;;
53207;SDS011;39093;52.788;6.940;2023-07-22T06:12:58;17.27;;;10.80;;
53207;SDS011;39093;52.788;6.940;2023-07-22T06:15:25;17.65;;;11.25;;
53207;SDS011;39093;52.788;6.940;2023-07-22T06:17:52;16.10;;;10.55;;
53207;SDS011;39093;52.788;6.940;2023-07-22T06:20:19;16.63;;;10.35;;
53207;SDS011;39093;52.788;6.940;2023-07-22T06:22:45;17.38;;;10.27;;
53207;SDS011;39093;52.788;6.940;2023-07-22T06:25:12;19.38;;;11.23;;
53207;SDS011;39093;52.788;6.940;2023-07-22T06:27:39;19.27;;;10.68;;
53207;SDS011;39093;52.788;6.940;2023-07-22T06:30:06;19.23;;;12.07;;
53207;SDS011;39093;52.788;6.940;2023-07-22T06:32:35;16.67;;;11.88;;
53207;SDS011;39093;52.788;6.940;2023-07-22T06:35:03;18.60;;;11.70;;
53207;SDS011;39093;52.788;6.940;2023-07-22T06:37:31;20.17;;;12.07;;
53207;SDS011;39093;52.788;6.940;2023-07-22T06:39:58;17.48;;;11.65;;
53207;SDS011;39093;52.788;6.940;2023-07-22T06:42:25;19.25;;;11.75;;
53207;SDS011;39093;52.788;6.940;2023-07-22T06:44:53;23.08;;;11.82;;
53207;SDS011;39093;52.788;6.940;2023-07-22T06:47:23;17.88;;;11.43;;
53207;SDS011;39093;52.788;6.940;2023-07-22T06:49:50;18.58;;;10.75;;
53207;SDS011;39093;52.788;6.940;2023-07-22T06:52:17;18.17;;;11.52;;
53207;SDS011;39093;52.788;6.940;2023-07-22T06:54:44;18.48;;;12.05;;
53207;SDS011;39093;52.788;6.940;2023-07-22T06:57:12;19.77;;;12.93;;
53207;SDS011;39093;52.788;6.940;2023-07-22T06:59:39;26.70;;;13.30;;
53207;SDS011;39093;52.788;6.940;2023-07-22T07:02:05;18.33;;;11.93;;
53207;SDS011;39093;52.788;6.940;2023-07-22T07:04:32;22.80;;;14.40;;
53207;SDS011;39093;52.788;6.940;2023-07-22T07:06:59;21.13;;;13.00;;
53207;SDS011;39093;52.788;6.940;2023-07-22T07:09:29;25.55;;;14.38;;
53207;SDS011;39093;52.788;6.940;2023-07-22T07:11:56;25.48;;;14.93;;
53207;SDS011;39093;52.788;6.940;2023-07-22T07:14:23;23.90;;;14.88;;
53207;SDS011;39093;52.788;6.940;2023-07-22T07:16:51;24.15;;;13.82;;
53207;SDS011;39093;52.788;6.940;2023-07-22T07:19:18;24.30;;;14.18;;
53207;SDS011;39093;52.788;6.940;2023-07-22T07:21:45;27.20;;;15.05;;
53207;SDS011;39093;52.788;6.940;2023-07-22T07:24:12;25.90;;;15.48;;
53207;SDS011;39093;52.788;6.940;2023-07-22T07:26:39;23.60;;;14.18;;
53207;SDS011;39093;52.788;6.940;2023-07-22T07:29:07;24.08;;;15.10;;
53207;SDS011;39093;52.788;6.940;2023-07-22T07:31:34;22.63;;;14.68;;
53207;SDS011;39093;52.788;6.940;2023-07-22T07:34:01;25.63;;;14.20;;
53207;SDS011;39093;52.788;6.940;2023-07-22T07:36:28;24.95;;;14.43;;
53207;SDS011;39093;52.788;6.940;2023-07-22T07:38:57;24.48;;;14.68;;
53207;SDS011;39093;52.788;6.940;2023-07-22T07:41:24;23.05;;;15.30;;
53207;SDS011;39093;52.788;6.940;2023-07-22T07:43:51;26.35;;;15.65;;
53207;SDS011;39093;52.788;6.940;2023-07-22T07:48:54;22.92;;;13.77;;
53207;SDS011;39093;52.788;6.940;2023-07-22T07:51:27;25.35;;;15.50;;
53207;SDS011;39093;52.788;6.940;2023-07-22T07:53:56;22.20;;;14.13;;
53207;SDS011;39093;52.788;6.940;2023-07-22T07:56:27;26.48;;;15.10;;
53207;SDS011;39093;52.788;6.940;2023-07-22T07:58:55;22.50;;;14.63;;
53207;SDS011;39093;52.788;6.940;2023-07-22T08:01:22;24.80;;;14.98;;
53207;SDS011;39093;52.788;6.940;2023-07-22T08:03:49;23.80;;;14.70;;
53207;SDS011;39093;52.788;6.940;2023-07-22T08:06:19;26.00;;;14.48;;
53207;SDS011;39093;52.788;6.940;2023-07-22T08:08:46;22.23;;;13.23;;
53207;SDS011;39093;52.788;6.940;2023-07-22T08:11:14;20.15;;;13.55;;
53207;SDS011;39093;52.788;6.940;2023-07-22T08:13:42;23.27;;;13.32;;
53207;SDS011;39093;52.788;6.940;2023-07-22T08:16:11;22.95;;;13.05;;
53207;SDS011;39093;52.788;6.940;2023-07-22T08:18:39;17.92;;;12.15;;
53207;SDS011;39093;52.788;6.940;2023-07-22T08:21:06;19.35;;;12.85;;
53207;SDS011;39093;52.788;6.940;2023-07-22T08:23:35;18.65;;;12.43;;
53207;SDS011;39093;52.788;6.940;2023-07-22T08:26:03;20.23;;;13.02;;
53207;SDS011;39093;52.788;6.940;2023-07-22T08:28:32;21.23;;;12.02;;
53207;SDS011;39093;52.788;6.940;2023-07-22T08:31:02;19.73;;;12.13;;
53207;SDS011;39093;52.788;6.940;2023-07-22T08:33:30;17.05;;;11.50;;
53207;SDS011;39093;52.788;6.940;2023-07-22T08:36:00;16.63;;;11.63;;
53207;SDS011;39093;52.788;6.940;2023-07-22T08:38:28;17.05;;;11.10;;
53207;SDS011;39093;52.788;6.940;2023-07-22T08:40:56;15.77;;;10.82;;
53207;SDS011;39093;52.788;6.940;2023-07-22T08:43:23;15.10;;;10.00;;
53207;SDS011;39093;52.788;6.940;2023-07-22T08:45:51;17.75;;;10.80;;
53207;SDS011;39093;52.788;6.940;2023-07-22T08:48:18;16.27;;;9.68;;
53207;SDS011;39093;52.788;6.940;2023-07-22T08:53:35;17.20;;;10.88;;
53207;SDS011;39093;52.788;6.940;2023-07-22T08:56:03;17.70;;;9.75;;
53207;SDS011;39093;52.788;6.940;2023-07-22T08:58:31;14.32;;;8.93;;
53207;SDS011;39093;52.788;6.940;2023-07-22T09:00:59;14.13;;;9.95;;
53207;SDS011;39093;52.788;6.940;2023-07-22T09:03:27;15.52;;;9.30;;
53207;SDS011;39093;52.788;6.940;2023-07-22T09:05:54;13.32;;;8.32;;
53207;SDS011;39093;52.788;6.940;2023-07-22T09:08:22;14.45;;;8.40;;
53207;SDS011;39093;52.788;6.940;2023-07-22T09:10:49;12.20;;;7.20;;
53207;SDS011;39093;52.788;6.940;2023-07-22T09:13:17;11.98;;;7.65;;
53207;SDS011;39093;52.788;6.940;2023-07-22T09:15:45;14.23;;;7.53;;
53207;SDS011;39093;52.788;6.940;2023-07-22T09:18:14;12.50;;;7.15;;
53207;SDS011;39093;52.788;6.940;2023-07-22T09:20:44;10.98;;;7.78;;
53207;SDS011;39093;52.788;6.940;2023-07-22T09:23:11;9.45;;;7.10;;
53207;SDS011;39093;52.788;6.940;2023-07-22T09:25:41;9.35;;;6.57;;
53207;SDS011;39093;52.788;6.940;2023-07-22T09:28:08;13.60;;;6.50;;
53207;SDS011;39093;52.788;6.940;2023-07-22T09:30:37;9.82;;;6.75;;
53207;SDS011;39093;52.788;6.940;2023-07-22T09:33:06;9.23;;;5.85;;
53207;SDS011;39093;52.788;6.940;2023-07-22T09:38:11;9.27;;;5.65;;
53207;SDS011;39093;52.788;6.940;2023-07-22T09:40:42;8.52;;;6.43;;
53207;SDS011;39093;52.788;6.940;2023-07-22T09:43:09;15.18;;;7.00;;
53207;SDS011;39093;52.788;6.940;2023-07-22T09:45:38;10.77;;;6.15;;
53207;SDS011;39093;52.788;6.940;2023-07-22T09:48:05;10.50;;;6.85;;
53207;SDS011;39093;52.788;6.940;2023-07-22T09:50:35;16.45;;;7.95;;
53207;SDS011;39093;52.788;6.940;2023-07-22T09:53:03;13.55;;;8.30;;
53207;SDS011;39093;52.788;6.940;2023-07-22T09:55:31;14.52;;;8.52;;
53207;SDS011;39093;52.788;6.940;2023-07-22T09:58:04;14.07;;;7.97;;
53207;SDS011;39093;52.788;6.940;2023-07-22T10:00:35;14.95;;;8.75;;
53207;SDS011;39093;52.788;6.940;2023-07-22T10:03:03;14.18;;;8.00;;
53207;SDS011;39093;52.788;6.940;2023-07-22T10:05:37;15.00;;;8.48;;
53207;SDS011;39093;52.788;6.940;2023-07-22T10:08:05;19.77;;;8.10;;
53207;SDS011;39093;52.788;6.940;2023-07-22T10:10:33;12.43;;;7.38;;
53207;SDS011;39093;52.788;6.940;2023-07-22T10:13:02;12.32;;;6.90;;
53207;SDS011;39093;52.788;6.940;2023-07-22T10:15:30;19.15;;;9.07;;
53207;SDS011;39093;52.788;6.940;2023-07-22T10:18:00;10.23;;;6.30;;
53207;SDS011;39093;52.788;6.940;2023-07-22T10:20:28;10.57;;;6.20;;
53207;SDS011;39093;52.788;6.940;2023-07-22T10:22:56;12.23;;;5.68;;
53207;SDS011;39093;52.788;6.940;2023-07-22T10:25:24;9.60;;;5.40;;
53207;SDS011;39093;52.788;6.940;2023-07-22T10:27:51;11.15;;;6.00;;
53207;SDS011;39093;52.788;6.940;2023-07-22T10:30:19;9.68;;;6.18;;
53207;SDS011;39093;52.788;6.940;2023-07-22T10:32:47;15.40;;;7.15;;
53207;SDS011;39093;52.788;6.940;2023-07-22T10:35:34;15.18;;;6.57;;
53207;SDS011;39093;52.788;6.940;2023-07-22T10:38:11;12.15;;;7.07;;
53207;SDS011;39093;52.788;6.940;2023-07-22T10:40:52;11.15;;;7.20;;
53207;SDS011;39093;52.788;6.940;2023-07-22T10:43:24;12.70;;;6.45;;
53207;SDS011;39093;52.788;6.940;2023-07-22T10:45:52;10.85;;;6.85;;
53207;SDS011;39093;52.788;6.940;2023-07-22T10:48:21;10.38;;;7.30;;
53207;SDS011;39093;52.788;6.940;2023-07-22T10:50:50;10.73;;;7.25;;
53207;SDS011;39093;52.788;6.940;2023-07-22T11:04:12;17.10;;;9.07;;
53207;SDS011;39093;52.788;6.940;2023-07-22T11:07:05;14.18;;;8.48;;
53207;SDS011;39093;52.788;6.940;2023-07-22T11:09:36;13.90;;;8.32;;
53207;SDS011;39093;52.788;6.940;2023-07-22T11:12:08;18.02;;;9.20;;
53207;SDS011;39093;52.788;6.940;2023-07-22T11:14:38;13.82;;;9.25;;
53207;SDS011;39093;52.788;6.940;2023-07-22T11:17:07;16.55;;;9.68;;
53207;SDS011;39093;52.788;6.940;2023-07-22T11:19:35;26.17;;;10.80;;
53207;SDS011;39093;52.788;6.940;2023-07-22T11:22:02;19.13;;;10.82;;
53207;SDS011;39093;52.788;6.940;2023-07-22T11:24:29;16.33;;;10.10;;
53207;SDS011;39093;52.788;6.940;2023-07-22T11:26:59;15.45;;;9.40;;
53207;SDS011;39093;52.788;6.940;2023-07-22T11:29:28;20.75;;;10.00;;
53207;SDS011;39093;52.788;6.940;2023-07-22T11:31:55;16.33;;;10.65;;
53207;SDS011;39093;52.788;6.940;2023-07-22T11:34:25;21.15;;;10.40;;
53207;SDS011;39093;52.788;6.940;2023-07-22T11:36:56;21.55;;;11.43;;
53207;SDS011;39093;52.788;6.940;2023-07-22T11:39:25;18.38;;;9.70;;
53207;SDS011;39093;52.788;6.940;2023-07-22T11:41:53;23.20;;;10.90;;
53207;SDS011;39093;52.788;6.940;2023-07-22T11:44:20;22.58;;;11.80;;
53207;SDS011;39093;52.788;6.940;2023-07-22T11:46:58;40.45;;;13.80;;
53207;SDS011;39093;52.788;6.940;2023-07-22T11:49:28;22.35;;;11.85;;
53207;SDS011;39093;52.788;6.940;2023-07-22T11:52:04;21.90;;;13.02;;
53207;SDS011;39093;52.788;6.940;2023-07-22T11:54:41;27.73;;;14.45;;
53207;SDS011;39093;52.788;6.940;2023-07-22T11:57:14;25.02;;;13.75;;
53207;SDS011;39093;52.788;6.940;2023-07-22T11:59:43;30.00;;;13.13;;
53207;SDS011;39093;52.788;6.940;2023-07-22T12:02:16;27.33;;;13.40;;
53207;SDS011;39093;52.788;6.940;2023-07-22T12:07:33;16.90;;;11.45;;
53207;SDS011;39093;52.788;6.940;2023-07-22T12:10:05;17.58;;;10.18;;
53207;SDS011;39093;52.788;6.940;2023-07-22T12:15:12;28.90;;;12.60;;
53207;SDS011;39093;52.788;6.940;2023-07-22T12:20:12;20.40;;;10.60;;
53207;SDS011;39093;52.788;6.940;2023-07-22T12:22:42;15.98;;;10.77;;
53207;SDS011;39093;52.788;6.940;2023-07-22T12:25:12;18.35;;;11.20;;
53207;SDS011;39093;52.788;6.940;2023-07-22T12:27:43;19.45;;;11.80;;
53207;SDS011;39093;52.788;6.940;2023-07-22T12:30:10;13.18;;;8.40;;
53207;SDS011;39093;52.788;6.940;2023-07-22T12:32:38;14.35;;;9.95;;
53207;SDS011;39093;52.788;6.940;2023-07-22T12:35:08;19.60;;;11.20;;
53207;SDS011;39093;52.788;6.940;2023-07-22T12:37:36;16.77;;;9.93;;
53207;SDS011;39093;52.788;6.940;2023-07-22T12:40:03;12.95;;;9.57;;
53207;SDS011;39093;52.788;6.940;2023-07-22T12:42:35;17.70;;;9.88;;
53207;SDS011;39093;52.788;6.940;2023-07-22T12:45:03;12.07;;;8.90;;
53207;SDS011;39093;52.788;6.940;2023-07-22T12:47:33;15.15;;;9.13;;
53207;SDS011;39093;52.788;6.940;2023-07-22T12:50:00;10.50;;;8.05;;
53207;SDS011;39093;52.788;6.940;2023-07-22T12:52:27;9.43;;;7.88;;
53207;SDS011;39093;52.788;6.940;2023-07-22T12:54:54;11.30;;;8.60;;
53207;SDS011;39093;52.788;6.940;2023-07-22T12:57:21;16.23;;;8.88;;
53207;SDS011;39093;52.788;6.940;2023-07-22T12:59:48;13.90;;;10.10;;
53207;SDS011;39093;52.788;6.940;2023-07-22T13:02:16;13.27;;;8.35;;
53207;SDS011;39093;52.788;6.940;2023-07-22T13:04:43;19.05;;;9.93;;
53207;SDS011;39093;52.788;6.940;2023-07-22T13:07:10;12.10;;;10.63;;
53207;SDS011;39093;52.788;6.940;2023-07-22T13:09:38;14.70;;;9.25;;
53207;SDS011;39093;52.788;6.940;2023-07-22T13:12:05;10.68;;;9.05;;
53207;SDS011;39093;52.788;6.940;2023-07-22T13:14:32;14.18;;;8.35;;
53207;SDS011;39093;52.788;6.940;2023-07-22T13:16:59;10.43;;;7.95;;
53207;SDS011;39093;52.788;6.940;2023-07-22T13:19:26;9.20;;;7.43;;
53207;SDS011;39093;52.788;6.940;2023-07-22T13:21:53;12.07;;;7.47;;
53207;SDS011;39093;52.788;6.940;2023-07-22T13:24:23;9.80;;;6.40;;
53207;SDS011;39093;52.788;6.940;2023-07-22T13:26:50;12.80;;;6.68;;
53207;SDS011;39093;52.788;6.940;2023-07-22T13:29:17;8.30;;;6.18;;
53207;SDS011;39093;52.788;6.940;2023-07-22T13:31:44;10.65;;;6.05;;
53207;SDS011;39093;52.788;6.940;2023-07-22T13:34:11;9.23;;;6.35;;
53207;SDS011;39093;52.788;6.940;2023-07-22T13:36:38;10.20;;;6.47;;
53207;SDS011;39093;52.788;6.940;2023-07-22T13:39:05;7.30;;;5.97;;
53207;SDS011;39093;52.788;6.940;2023-07-22T13:41:32;10.63;;;6.68;;
53207;SDS011;39093;52.788;6.940;2023-07-22T13:43:59;10.18;;;6.80;;
53207;SDS011;39093;52.788;6.940;2023-07-22T13:46:26;8.23;;;6.30;;
53207;SDS011;39093;52.788;6.940;2023-07-22T13:48:53;8.65;;;6.78;;
53207;SDS011;39093;52.788;6.940;2023-07-22T13:51:20;12.40;;;7.57;;
53207;SDS011;39093;52.788;6.940;2023-07-22T13:53:47;10.57;;;7.60;;
53207;SDS011;39093;52.788;6.940;2023-07-22T13:56:14;12.13;;;8.48;;
53207;SDS011;39093;52.788;6.940;2023-07-22T13:58:41;9.93;;;8.27;;
53207;SDS011;39093;52.788;6.940;2023-07-22T14:01:08;11.38;;;7.88;;
53207;SDS011;39093;52.788;6.940;2023-07-22T14:03:38;12.90;;;8.63;;
53207;SDS011;39093;52.788;6.940;2023-07-22T14:06:05;9.65;;;7.72;;
53207;SDS011;39093;52.788;6.940;2023-07-22T14:08:32;18.30;;;10.05;;
53207;SDS011;39093;52.788;6.940;2023-07-22T14:11:00;15.98;;;9.82;;
53207;SDS011;39093;52.788;6.940;2023-07-22T14:13:27;12.15;;;9.75;;
53207;SDS011;39093;52.788;6.940;2023-07-22T14:15:54;11.95;;;8.95;;
53207;SDS011;39093;52.788;6.940;2023-07-22T14:18:34;12.60;;;8.20;;
53207;SDS011;39093;52.788;6.940;2023-07-22T14:21:01;11.65;;;7.93;;
53207;SDS011;39093;52.788;6.940;2023-07-22T14:23:28;12.57;;;8.48;;
53207;SDS011;39093;52.788;6.940;2023-07-22T14:25:55;10.20;;;8.73;;
53207;SDS011;39093;52.788;6.940;2023-07-22T14:28:22;9.32;;;7.95;;
53207;SDS011;39093;52.788;6.940;2023-07-22T14:30:49;13.18;;;9.43;;
53207;SDS011;39093;52.788;6.940;2023-07-22T14:33:16;14.25;;;11.00;;
53207;SDS011;39093;52.788;6.940;2023-07-22T14:35:43;15.50;;;10.13;;
53207;SDS011;39093;52.788;6.940;2023-07-22T14:38:10;15.68;;;10.93;;
53207;SDS011;39093;52.788;6.940;2023-07-22T14:40:37;17.52;;;11.27;;
53207;SDS011;39093;52.788;6.940;2023-07-22T14:43:04;18.08;;;11.88;;
53207;SDS011;39093;52.788;6.940;2023-07-22T14:45:31;16.95;;;11.93;;
53207;SDS011;39093;52.788;6.940;2023-07-22T14:47:58;21.05;;;12.63;;
53207;SDS011;39093;52.788;6.940;2023-07-22T14:50:28;16.58;;;12.10;;
53207;SDS011;39093;52.788;6.940;2023-07-22T14:52:55;16.92;;;12.48;;
53207;SDS011;39093;52.788;6.940;2023-07-22T14:55:25;19.25;;;13.70;;
53207;SDS011;39093;52.788;6.940;2023-07-22T14:57:52;16.02;;;12.43;;
53207;SDS011;39093;52.788;6.940;2023-07-22T15:00:19;17.02;;;12.38;;
53207;SDS011;39093;52.788;6.940;2023-07-22T15:02:47;16.20;;;12.70;;